Station: Sydney Olympic Park  

  Atmospheric Gas Attenuation - ITU Rec 676-11   ----------------- dB/100km -----------------
Date Time Temp RH % AH g/m3 Dew Point Wind Direction Speed kph Gust kph Barometer mB Rainfall Since 9am 24GHz 47GHz 76GHz 122GHz 134GHz 241GHz
08/05 12:30 20.5 38 6.76 5.7 13 24 1013.1 0 15.4 21.4 30.1 78.6 68.9 235.8
08/05 12:20 20.6 40 7.16 6.5 7 9 1013.1 0 16.2 21.9 31.4 82.2 73.3 251.5
08/05 12:10 20.4 39 6.9 6 11 15 1013.1 0 15.7 21.6 30.6 80.0 70.6 241.7
08/05 12:00 20 40 6.91 6 15 30 1013.1 0 15.7 21.7 30.8 80.5 71.0 243.3
08/05 11:50 19.3 40 6.63 5.4 20 28 1013.1 0 15.2 21.5 30.1 78.6 68.4 234.1
08/05 11:40 19.4 40 6.67 5.5 13 15 1013.1 0 15.3 21.5 30.2 78.8 68.8 235.4
08/05 11:30 19 41 6.68 5.5 15 30 1013.1 0 15.3 21.6 30.4 79.3 69.3 237.0
08/05 11:20 19.3 40 6.63 5.4 11 17 1013.1 0 15.2 21.5 30.1 78.6 68.4 234.1
08/05 11:10 18.7 42 6.72 5.5 15 20 1013.1 0 15.4 21.8 30.6 80.0 70.0 239.5
08/05 11:00 18.5 41 6.49 5 19 35 1013.1 0 14.9 21.5 29.9 78.0 67.5 230.8
08/05 10:50 18.1 43 6.64 5.3 19 28 1013.1 0 15.2 21.8 30.6 79.8 69.6 238.0
08/05 10:40 18.5 47 7.44 7 22 33 1013.1 0 16.9 22.8 33.3 87.0 78.6 269.7
08/05 10:30 17.7 45 6.79 5.6 15 28 1013.1 0 15.6 22.1 31.2 81.6 71.7 245.3
08/05 10:20 17.9 49 7.48 7 13 17 1013.1 0 17.0 23.0 33.6 88.1 79.7 273.3
08/05 10:10 17.3 48 7.07 6.2 11 19 1013.1 0 16.2 22.6 32.4 84.7 75.3 258.2
08/05 10:00 17.1 47 6.84 5.7 11 20 1013.1 0 15.7 22.3 31.7 82.7 72.8 249.2
08/05 09:50 16.7 51 7.25 6.5 13 17 1013.1 0 16.6 23.0 33.3 87.1 78.1 267.7
08/05 09:40 16.1 50 6.85 5.7 9 15 1013.1 0 15.8 22.6 32.1 83.9 73.8 252.7
08/05 09:30 16 49 6.68 5.3 13 20 1013.1 0 15.4 22.3 31.5 82.3 71.9 245.9
08/05 09:20 15.8 48 6.46 4.8 11 13 1013.1 0 15.0 22.1 30.8 80.4 69.5 237.3
08/05 09:10 15.4 51 6.7 5.3 11 13 1013.1 0 15.5 22.5 31.8 83.1 72.7 248.6
08/05 09:00 15.2 53 6.88 5.7 9 17 1013.1 0 15.9 22.8 32.5 85.1 75.0 256.8
08/05 08:50 14.6 54 6.76 5.4 13 17 1013.1 0.2 15.6 22.8 32.3 84.5 74.2 253.6
08/05 08:40 14.2 55 6.72 5.3 7 9 1013.1 0.2 15.6 22.9 32.4 84.6 74.0 253.2
08/05 08:30 13.8 59 7.03 5.9 9 15 1013.1 0.2 16.2 23.4 33.7 88.1 78.2 267.9
08/05 08:20 13.2 62 7.12 6.1 9 11 1013.1 0.2 16.5 23.7 34.3 89.7 80.0 273.9
08/05 08:10 12.6 65 7.19 6.2 9 11 1013.1 0.2 16.6 24.0 34.8 91.1 81.5 279.1
08/05 08:00 11.5 67 6.92 5.6 9 15 1013.1 0.2 16.1 23.9 34.2 89.5 79.2 270.8
08/05 07:50 10.9 69 6.86 5.4 7 7 1013.1 0.2 16.0 23.9 34.2 89.6 79.0 270.2
08/05 07:40 9.7 69 6.36 4.3 6 7 1013.1 0.2 15.0 23.4 32.8 85.7 73.8 251.6
08/05 07:30 8.5 71 6.06 3.6 9 11 1013.1 0.2 14.4 23.3 32.1 83.9 71.0 241.8
08/05 07:20 7.9 77 6.33 4.1 7 11 1013.1 0.2 15.0 23.9 33.4 87.4 75.1 256.0
08/05 07:10 7.8 77 6.29 4 7 9 1013.1 0.2 14.9 23.8 33.3 87.1 74.7 254.5
08/05 07:00 7.6 76 6.13 3.6 7 13 1013.1 0.2 14.6 23.6 32.8 85.6 72.8 247.8
08/05 06:50 7.6 75 6.04 3.5 7 9 1013.1 0.2 14.4 23.5 32.4 84.6 71.6 243.7
08/05 06:40 7.8 74 6.04 3.5 7 7 1013.1 0.2 14.4 23.4 32.3 84.4 71.4 243.1
08/05 06:30 7.9 73 6 3.4 9 13 1013.1 0.2 14.3 23.3 32.1 83.9 70.8 241.0
08/05 06:20 8.1 74 6.16 3.8 9 11 1013.1 0.2 14.6 23.5 32.7 85.4 72.7 247.6
08/05 06:10 8.3 73 6.16 3.8 9 9 1013.1 0.2 14.6 23.5 32.6 85.2 72.5 247.0
08/05 06:00 8.3 72 6.07 3.6 9 17 1013.1 0.2 14.4 23.4 32.2 84.2 71.3 242.9
08/05 05:50 8.6 71 6.1 3.6 13 13 1013.1 0.2 14.5 23.3 32.2 84.2 71.4 243.3
08/05 05:40 8.4 73 6.2 3.8 9 11 1013.1 0.2 14.7 23.5 32.7 85.5 72.9 248.5
08/05 05:30 8.3 74 6.24 3.9 11 19 1013.1 0.2 14.8 23.6 32.9 86.0 73.5 250.6
08/05 05:20 8 75 6.2 3.8 9 9 1013.1 0.2 14.7 23.6 32.9 85.9 73.3 249.7
08/05 05:10 7.7 75 6.08 3.6 9 13 1013.1 0.2 14.5 23.5 32.5 85.0 72.0 245.2
08/05 05:00 8 74 6.12 3.7 7 11 1013.1 0.2 14.5 23.5 32.6 85.1 72.3 246.1
08/05 04:50 7.8 72 5.88 3.1 7 9 1013.1 0.2 14.0 23.2 31.7 82.8 69.3 235.8
08/05 04:40 7.9 72 5.92 3.2 6 7 1013.1 0.2 14.1 23.2 31.8 83.1 69.8 237.3
08/05 04:30 7.9 71 5.83 3 7 11 1013.1 0.2 13.9 23.1 31.5 82.1 68.6 233.3
08/05 04:20 8.2 71 5.95 3.3 7 7 1013.1 0.2 14.2 23.2 31.8 83.1 69.9 237.8
08/05 04:10 8.2 70 5.86 3.1 9 13 1013.1 0.2 14.0 23.1 31.5 82.1 68.7 233.7
08/05 04:00 8.4 69 5.86 3.1 9 15 1013.1 0.2 14.0 23.0 31.4 81.9 68.5 233.1
08/05 03:50 8.6 70 6.02 3.4 9 11 1013.1 0.2 14.3 23.2 31.9 83.4 70.4 239.7
08/05 03:40 8.6 70 6.02 3.4 11 13 1013.1 0.2 14.3 23.2 31.9 83.4 70.4 239.7
08/05 03:30 8.4 70 5.94 3.3 11 17 1013.1 0.2 14.1 23.1 31.7 82.8 69.6 236.7
08/05 03:20 8.7 69 5.97 3.3 11 13 1013.1 0.2 14.2 23.1 31.7 82.8 69.7 237.2
08/05 03:10 9 68 6 3.4 9 11 1013.1 0.2 14.2 23.1 31.7 82.8 69.8 237.6
08/05 03:00 8.9 66 5.78 2.9 9 13 1013.1 0.2 13.8 22.7 30.9 80.6 67.1 228.1
08/05 02:50 9.1 66 5.86 3.1 9 11 1013.1 0.2 13.9 22.8 31.1 81.2 67.9 231.1
08/05 02:40 9.5 65 5.92 3.3 7 11 1013.1 0.2 14.0 22.8 31.2 81.4 68.3 232.6
08/05 02:30 9.5 64 5.83 3 11 15 1013.1 0.2 13.8 22.7 30.8 80.5 67.2 228.6
08/05 02:20 9.6 64 5.86 3.1 7 11 1013.1 0.2 13.9 22.7 30.9 80.7 67.5 229.7
08/05 02:10 9.8 63 5.85 3.1 7 11 1013.1 0.2 13.9 22.6 30.8 80.4 67.2 228.6
08/05 02:00 9.8 62 5.75 2.9 11 19 1013.1 0.2 13.7 22.5 30.4 79.4 66.0 224.3
08/05 01:50 9.8 59 5.48 2.2 13 17 1013.1 0.2 13.1 22.1 29.4 76.7 62.6 212.5
08/05 01:40 9.9 60 5.6 2.5 11 13 1013.1 0.2 13.3 22.2 29.8 77.8 64.0 217.4
08/05 01:30 9.9 60 5.6 2.5 11 17 1013.1 0.2 13.3 22.2 29.8 77.8 64.0 217.4
08/05 01:20 10 56 5.26 1.6 7 9 1013.1 0.2 12.6 21.7 28.5 74.3 59.8 202.5
08/05 01:10 10.2 56 5.33 1.8 11 15 1013.1 0.2 12.8 21.7 28.7 74.8 60.5 205.0
08/05 01:00 10.4 54 5.21 1.5 11 24 1013.1 0.2 12.5 21.5 28.2 73.4 58.9 199.4
08/05 00:50 10.3 55 5.27 1.7 7 11 1013.1 0.2 12.6 21.6 28.5 74.1 59.7 202.2
08/05 00:40 10.3 53 5.08 1.2 9 13 1013.1 0.2 12.2 21.4 27.8 72.3 57.4 194.1
08/05 00:20 10.5 54 5.24 1.6 11 13 1013.1 0.2 12.6 21.5 28.3 73.6 59.1 200.4
08/05 00:10 10.3 54 5.17 1.4 11 13 1013.1 0.2 12.4 21.5 28.1 73.1 58.4 197.9
08/05 00:00 10.5 53 5.14 1.3 13 20 1013.1 0.2 12.3 21.4 27.9 72.7 57.9 196.2
07/05 23:50 10.4 53 5.11 1.2 9 13 1013.1 0.2 12.3 21.4 27.8 72.5 57.6 195.1
07/05 23:40 10.3 53 5.08 1.2 15 17 1013.1 0.2 12.2 21.4 27.8 72.3 57.4 194.1
07/05 23:30 10.3 54 5.17 1.4 9 17 1013.1 0.2 12.4 21.5 28.1 73.1 58.4 197.9
07/05 23:20 10.2 56 5.33 1.8 9 13 1013.1 0.2 12.8 21.7 28.7 74.8 60.5 205.0
07/05 23:10 10.4 52 5.01 1 11 13 1013.1 0.2 12.1 21.2 27.5 71.5 56.4 190.9
07/05 23:00 10.5 52 5.04 1.1 11 19 1013.1 0.2 12.1 21.2 27.6 71.7 56.7 191.9
07/05 22:50 10.3 54 5.17 1.4 13 15 1013.1 0.2 12.4 21.5 28.1 73.1 58.4 197.9
07/05 22:40 10.4 54 5.21 1.5 9 13 1013.1 0.2 12.5 21.5 28.2 73.4 58.9 199.4
07/05 22:30 10.2 55 5.24 1.6 9 15 1013.1 0.2 12.6 21.6 28.4 73.9 59.4 201.2
07/05 22:20 10.5 53 5.14 1.3 11 13 1013.1 0.2 12.3 21.4 27.9 72.7 57.9 196.2
07/05 22:10 10.6 53 5.17 1.4 11 15 1013.1 0.2 12.4 21.4 28.0 72.9 58.2 197.2
07/05 22:00 10.5 54 5.24 1.6 11 20 1013.1 0.2 12.6 21.5 28.3 73.6 59.1 200.4
07/05 21:50 10.7 53 5.21 1.5 13 17 1013.1 0.2 12.5 21.5 28.1 73.2 58.6 198.6
07/05 21:40 10.7 51 5.01 1 11 15 1013.1 0.2 12.1 21.2 27.4 71.2 56.2 190.2
07/05 21:30 10.9 51 5.07 1.2 13 22 1013.1 0.2 12.2 21.2 27.5 71.6 56.8 192.3
07/05 21:20 11.1 49 4.94 0.8 13 15 1013.1 0.2 11.9 21.0 27.0 70.2 55.1 186.4
07/05 21:10 11.4 48 4.93 0.8 13 19 1013.1 0.2 11.9 20.9 26.9 69.8 54.8 185.3
07/05 21:00 11.6 46 4.78 0.4 15 30 1013.1 0.2 11.5 20.6 26.3 68.3 52.9 178.6
07/05 20:50 11.4 47 4.83 0.5 13 19 1013.1 0.2 11.7 20.7 26.5 68.9 53.6 181.1
07/05 20:40 11.5 45 4.65 0 15 22 1013.1 0.2 11.3 20.5 25.8 67.1 51.5 173.5
07/05 20:30 11.7 44 4.6 -0.1 11 20 1013.1 0.2 11.2 20.3 25.6 66.5 50.7 171.0
07/05 20:20 11.6 44 4.57 -0.2 15 20 1013.1 0.2 11.1 20.3 25.5 66.3 50.5 170.0
07/05 20:10 11.8 44 4.63 0 15 20 1013.1 0.2 11.2 20.4 25.7 66.7 51.0 172.0
07/05 20:00 11.8 44 4.63 0 13 24 1013.1 0.2 11.2 20.4 25.7 66.7 51.0 172.0
07/05 19:50 11.9 43 4.55 -0.3 9 13 1013.1 0.2 11.0 20.2 25.4 65.8 50.0 168.6

Last Refresh: 08-May-2026 12:08:31

Bureau of Meteorology